createdAt,value
2023-02-19T00:01:48.871Z,98681.53
2023-02-19T00:04:25.131Z,98691.75
2023-02-19T00:06:52.523Z,98678.72
2023-02-19T00:09:20.336Z,98693.78
2023-02-19T00:11:48.659Z,98686.63
2023-02-19T00:14:21.523Z,98687.97
2023-02-19T00:16:49.980Z,98677.63
2023-02-19T00:19:20.648Z,98686.41
2023-02-19T00:21:50.662Z,98668.25
2023-02-19T00:24:18.538Z,98675.19
2023-02-19T00:26:46.552Z,98675.50
2023-02-19T00:29:16.689Z,98674.56
2023-02-19T00:31:44.655Z,98679.97
2023-02-19T00:34:13.482Z,98670.75
2023-02-19T00:36:42.673Z,98659.66
2023-02-19T00:39:15.911Z,98676.50
2023-02-19T00:41:44.431Z,98671.75
2023-02-19T00:44:12.411Z,98678.81
2023-02-19T00:46:46.202Z,98675.41
2023-02-19T00:49:22.002Z,98671.81
2023-02-19T00:51:51.383Z,98664.63
2023-02-19T00:54:18.832Z,98659.44
2023-02-19T00:56:46.641Z,98655.66
2023-02-19T00:59:14.614Z,98657.63
2023-02-19T01:01:42.342Z,98655.97
2023-02-19T01:04:11.177Z,98656.22
2023-02-19T01:06:39.244Z,98663.91
2023-02-19T01:09:07.927Z,98654.56
2023-02-19T01:11:36.203Z,98644.53
2023-02-19T01:14:05.307Z,98644.06
2023-02-19T01:16:32.918Z,98643.72
2023-02-19T01:19:00.371Z,98640.63
2023-02-19T01:21:32.636Z,98640.88
2023-02-19T01:24:00.516Z,98628.56
2023-02-19T01:26:32.378Z,98634.53
2023-02-19T01:29:01.674Z,98622.97
2023-02-19T01:31:29.765Z,98628.56
2023-02-19T01:34:00.749Z,98630.88
2023-02-19T01:36:28.823Z,98624.91
2023-02-19T01:38:56.477Z,98626.16
2023-02-19T01:41:25.838Z,98641.13
2023-02-19T01:44:11.622Z,98643.38
2023-02-19T01:46:40.357Z,98644.72
2023-02-19T01:49:07.405Z,98642.00
2023-02-19T01:51:38.181Z,98637.34
2023-02-19T01:54:07.722Z,98641.81
2023-02-19T01:56:38.627Z,98629.41
2023-02-19T01:59:07.662Z,98639.09
2023-02-19T02:01:37.800Z,98644.44
2023-02-19T02:04:07.059Z,98648.88
2023-02-19T02:06:47.145Z,98651.94
2023-02-19T02:09:45.511Z,98656.66
2023-02-19T02:12:13.143Z,98642.19
2023-02-19T02:14:43.662Z,98641.47
2023-02-19T02:17:21.541Z,98648.75
2023-02-19T02:20:17.089Z,98653.50
2023-02-19T02:23:00.766Z,98651.63
2023-02-19T02:25:58.672Z,98659.41
2023-02-19T02:28:37.784Z,98663.97
2023-02-19T02:31:30.877Z,98661.22
2023-02-19T02:34:21.047Z,98670.56
2023-02-19T02:36:55.934Z,98682.72
2023-02-19T02:39:26.216Z,98674.16
2023-02-19T02:42:17.193Z,98688.38
2023-02-19T02:45:10.312Z,98688.13
2023-02-19T02:47:57.562Z,98704.22
2023-02-19T02:50:30.031Z,98710.72
2023-02-19T02:53:20.819Z,98704.88
2023-02-19T02:55:52.329Z,98715.34
2023-02-19T02:58:21.774Z,98723.88
2023-02-19T03:01:13.569Z,98712.81
2023-02-19T03:03:44.026Z,98714.56
2023-02-19T03:06:13.461Z,98715.09
2023-02-19T03:08:42.422Z,98706.59
2023-02-19T03:11:32.018Z,98728.13
2023-02-19T03:14:53.934Z,98720.97
2023-02-19T03:18:11.278Z,98724.81
2023-02-19T03:20:42.143Z,98731.88
2023-02-19T03:23:11.267Z,98739.88
2023-02-19T03:25:58.260Z,98745.00
2023-02-19T03:28:57.422Z,98748.09
2023-02-19T03:31:29.435Z,98753.91
2023-02-19T03:34:03.765Z,98749.22
2023-02-19T03:36:40.733Z,98755.91
2023-02-19T03:39:11.193Z,98751.56
2023-02-19T03:42:04.988Z,98763.25
2023-02-19T03:45:03.290Z,98756.88
2023-02-19T03:47:42.283Z,98745.38
2023-02-19T03:50:15.846Z,98747.38
2023-02-19T03:52:52.524Z,98744.91
2023-02-19T03:55:31.162Z,98746.09
2023-02-19T03:58:09.130Z,98747.47
2023-02-19T04:00:55.433Z,98753.16
2023-02-19T04:03:47.095Z,98765.25
2023-02-19T04:06:19.977Z,98759.78
2023-02-19T04:08:52.490Z,98767.38
2023-02-19T04:11:22.636Z,98768.50
2023-02-19T04:14:01.407Z,98763.31
2023-02-19T04:16:30.622Z,98757.25
2023-02-19T04:19:04.604Z,98764.63
2023-02-19T04:21:33.973Z,98769.34
2023-02-19T04:24:06.533Z,98763.13
2023-02-19T04:26:35.011Z,98767.88
2023-02-19T04:29:02.329Z,98767.75
2023-02-19T04:31:31.568Z,98769.22
2023-02-19T04:33:58.621Z,98758.19
2023-02-19T04:36:25.630Z,98760.97
2023-02-19T04:38:52.661Z,98758.97
2023-02-19T04:41:19.687Z,98765.16
2023-02-19T04:43:46.650Z,98759.66
2023-02-19T04:46:13.685Z,98760.84
2023-02-19T04:48:40.744Z,98764.34
2023-02-19T04:51:08.031Z,98760.91
2023-02-19T04:53:36.239Z,98759.50
2023-02-19T04:56:11.098Z,98776.97
2023-02-19T04:58:38.092Z,98774.72
2023-02-19T05:01:05.434Z,98772.22
2023-02-19T05:03:35.181Z,98775.16
2023-02-19T05:06:08.608Z,98773.38
2023-02-19T05:08:35.635Z,98781.47
2023-02-19T05:11:04.602Z,98772.66
2023-02-19T05:13:32.125Z,98777.16
2023-02-19T05:16:07.668Z,98776.81
2023-02-19T05:18:34.956Z,98780.81
2023-02-19T05:21:02.727Z,98788.72
2023-02-19T05:23:29.873Z,98783.69
2023-02-19T05:25:56.849Z,98789.88
2023-02-19T05:28:29.086Z,98786.63
2023-02-19T05:30:57.827Z,98796.53
2023-02-19T05:33:26.372Z,98799.16
2023-02-19T05:35:55.324Z,98801.75
2023-02-19T05:38:23.575Z,98801.75
2023-02-19T05:40:51.297Z,98807.69
2023-02-19T05:43:18.665Z,98806.41
2023-02-19T05:45:45.692Z,98804.59
2023-02-19T05:48:13.172Z,98812.41
2023-02-19T05:50:40.212Z,98814.06
2023-02-19T05:53:13.328Z,98822.28
2023-02-19T05:55:40.377Z,98811.72
2023-02-19T05:58:07.358Z,98816.06
2023-02-19T06:00:34.910Z,98812.00
2023-02-19T06:03:02.502Z,98818.59
2023-02-19T06:05:29.550Z,98810.50
2023-02-19T06:07:56.648Z,98810.16
2023-02-19T06:10:23.595Z,98810.72
2023-02-19T06:12:53.655Z,98807.75
2023-02-19T06:15:21.911Z,98811.63
2023-02-19T06:17:49.405Z,98815.13
2023-02-19T06:20:16.606Z,98816.56
2023-02-19T06:22:43.716Z,98821.09
2023-02-19T06:25:12.866Z,98822.22
2023-02-19T06:27:39.984Z,98815.72
2023-02-19T06:30:07.620Z,98820.16
2023-02-19T06:32:34.674Z,98810.41
2023-02-19T06:35:01.705Z,98815.28
2023-02-19T06:37:29.500Z,98810.09
2023-02-19T06:39:56.990Z,98806.13
2023-02-19T06:42:24.033Z,98803.50
2023-02-19T06:44:51.041Z,98801.38
2023-02-19T06:47:18.068Z,98800.84
2023-02-19T06:49:45.065Z,98802.38
2023-02-19T06:52:12.232Z,98805.22
2023-02-19T06:54:39.245Z,98804.56
2023-02-19T06:57:06.347Z,98805.66
2023-02-19T06:59:33.405Z,98815.84
2023-02-19T07:02:00.613Z,98805.41
2023-02-19T07:04:27.648Z,98800.84
2023-02-19T07:06:54.718Z,98793.53
2023-02-19T07:09:22.123Z,98790.91
2023-02-19T07:11:49.289Z,98789.38
2023-02-19T07:14:17.183Z,98790.25
2023-02-19T07:16:44.769Z,98789.00
2023-02-19T07:19:12.244Z,98788.00
2023-02-19T07:21:39.705Z,98793.34
2023-02-19T07:24:06.985Z,98806.72
2023-02-19T07:26:34.906Z,98803.44
2023-02-19T07:29:02.450Z,98799.66
2023-02-19T07:31:29.839Z,98799.53
2023-02-19T07:33:57.182Z,98799.59
2023-02-19T07:36:25.004Z,98792.13
2023-02-19T07:39:00.154Z,98789.69
2023-02-19T07:41:29.048Z,98795.56
2023-02-19T07:43:58.322Z,98792.47
2023-02-19T07:46:25.891Z,98790.34
2023-02-19T07:48:52.978Z,98796.41
2023-02-19T07:51:20.633Z,98797.09
2023-02-19T07:53:50.626Z,98795.59
2023-02-19T07:56:20.005Z,98792.34
2023-02-19T07:58:47.135Z,98796.06
2023-02-19T08:01:16.066Z,98791.16
2023-02-19T08:03:44.304Z,98794.88
2023-02-19T08:06:12.745Z,98774.94
2023-02-19T08:08:40.543Z,98776.44
2023-02-19T08:11:26.556Z,98764.88
2023-02-19T08:13:54.020Z,98778.00
2023-02-19T08:16:36.701Z,98764.94
2023-02-19T08:19:08.027Z,98762.00
2023-02-19T08:21:35.038Z,98760.63
2023-02-19T08:24:02.042Z,98760.72
2023-02-19T08:26:29.057Z,98758.91
2023-02-19T08:28:56.060Z,98759.50
2023-02-19T08:31:23.141Z,98756.59
2023-02-19T08:33:50.274Z,98750.91
2023-02-19T08:36:17.492Z,98749.00
2023-02-19T08:38:44.485Z,98753.16
2023-02-19T08:41:14.156Z,98755.09
2023-02-19T08:43:42.413Z,98752.78
2023-02-19T08:46:11.412Z,98752.88
2023-02-19T08:48:39.549Z,98743.94
2023-02-19T08:51:10.263Z,98729.19
2023-02-19T08:53:39.175Z,98724.25
2023-02-19T08:56:08.767Z,98717.50
2023-02-19T08:58:37.879Z,98718.19
2023-02-19T09:01:14.565Z,98707.09
2023-02-19T09:03:43.318Z,98707.47
2023-02-19T09:06:18.882Z,98706.53
2023-02-19T09:08:46.126Z,98703.16
2023-02-19T09:11:13.638Z,98697.75
2023-02-19T09:13:41.130Z,98695.41
2023-02-19T09:16:08.866Z,98699.63
2023-02-19T09:18:36.471Z,98690.75
2023-02-19T09:21:05.598Z,98685.06
2023-02-19T09:23:36.999Z,98687.13
2023-02-19T09:26:07.220Z,98674.38
2023-02-19T09:28:39.905Z,98683.44
2023-02-19T09:31:08.482Z,98673.69
2023-02-19T09:33:36.142Z,98681.16
2023-02-19T09:36:04.171Z,98675.59
2023-02-19T09:38:31.795Z,98669.63
2023-02-19T09:40:59.662Z,98666.38
2023-02-19T09:43:30.410Z,98659.75
2023-02-19T09:46:27.966Z,98651.47
2023-02-19T09:49:11.863Z,98660.56
2023-02-19T09:51:41.764Z,98646.78
2023-02-19T09:54:20.718Z,98652.69
2023-02-19T09:56:48.496Z,98640.94
2023-02-19T09:59:26.732Z,98648.56
2023-02-19T10:02:04.971Z,98639.00
2023-02-19T10:04:32.511Z,98634.69
2023-02-19T10:07:03.713Z,98627.44
2023-02-19T10:09:31.615Z,98627.31
2023-02-19T10:12:00.737Z,98612.41
2023-02-19T10:14:47.699Z,98615.47
2023-02-19T10:17:24.301Z,98615.34
2023-02-19T10:19:54.808Z,98600.97
2023-02-19T10:22:22.343Z,98596.88
2023-02-19T10:24:54.513Z,98593.47
2023-02-19T10:27:22.018Z,98590.91
2023-02-19T10:29:50.642Z,98585.78
2023-02-19T10:32:26.404Z,98580.34
2023-02-19T10:35:15.310Z,98575.81
2023-02-19T10:37:50.188Z,98568.25
2023-02-19T10:40:20.990Z,98567.38
2023-02-19T10:42:51.023Z,98557.13
2023-02-19T10:45:50.550Z,98548.72
2023-02-19T10:48:40.417Z,98544.44
2023-02-19T10:51:11.812Z,98544.94
2023-02-19T10:53:43.848Z,98538.78
2023-02-19T10:56:15.908Z,98529.22
2023-02-19T10:58:45.180Z,98517.97
2023-02-19T11:01:27.578Z,98524.06
2023-02-19T11:04:16.353Z,98511.16
2023-02-19T11:06:45.292Z,98498.50
2023-02-19T11:09:31.041Z,98486.38
2023-02-19T11:11:59.919Z,98470.09
2023-02-19T11:14:29.526Z,98468.47
2023-02-19T11:16:58.762Z,98469.41
2023-02-19T11:19:43.115Z,98455.56
2023-02-19T11:22:30.986Z,98454.97
2023-02-19T11:25:10.675Z,98442.88
2023-02-19T11:27:54.480Z,98428.84
2023-02-19T11:30:30.657Z,98419.41
2023-02-19T11:33:16.345Z,98417.75
2023-02-19T11:35:47.708Z,98410.53
2023-02-19T11:38:17.465Z,98403.69
2023-02-19T11:40:45.980Z,98398.28
2023-02-19T11:43:31.386Z,98392.34
2023-02-19T11:46:04.345Z,98384.69
2023-02-19T11:48:48.618Z,98374.97
2023-02-19T11:51:30.848Z,98377.53
2023-02-19T11:54:18.989Z,98378.31
2023-02-19T11:57:07.234Z,98368.84
2023-02-19T11:59:52.781Z,98366.25
2023-02-19T12:02:50.744Z,98369.66
2023-02-19T12:05:34.274Z,98363.50
2023-02-19T12:08:32.590Z,98349.44
2023-02-19T12:11:12.389Z,98338.75
2023-02-19T12:13:39.350Z,98336.09
2023-02-19T12:16:25.998Z,98338.56
2023-02-19T12:19:24.402Z,98327.25
2023-02-19T12:22:00.721Z,98326.69
2023-02-19T12:24:36.860Z,98328.25
2023-02-19T12:27:32.614Z,98312.03
2023-02-19T12:30:28.019Z,98305.06
2023-02-19T12:33:30.903Z,98300.88
2023-02-19T12:36:25.532Z,98282.97
2023-02-19T12:39:05.464Z,98284.59
2023-02-19T12:41:49.473Z,98274.53
2023-02-19T12:44:56.529Z,98272.06
2023-02-19T12:47:31.733Z,98270.63
2023-02-19T12:50:26.469Z,98265.63
2023-02-19T12:53:02.279Z,98263.31
2023-02-19T12:55:35.208Z,98255.56
2023-02-19T12:58:10.336Z,98255.09
2023-02-19T13:00:42.940Z,98251.56
2023-02-19T13:03:28.821Z,98237.19
2023-02-19T13:06:21.745Z,98240.88
2023-02-19T13:09:09.073Z,98232.34
2023-02-19T13:11:43.125Z,98233.41
2023-02-19T13:14:39.687Z,98230.66
2023-02-19T13:17:34.441Z,98229.78
2023-02-19T13:20:19.934Z,98211.66
2023-02-19T13:23:42.721Z,98213.69
2023-02-19T13:26:47.078Z,98214.63
2023-02-19T13:29:53.264Z,98208.88
2023-02-19T13:32:52.568Z,98197.50
2023-02-19T13:36:06.293Z,98193.13
2023-02-19T13:38:43.105Z,98189.97
2023-02-19T13:41:20.611Z,98188.75
2023-02-19T13:43:55.443Z,98191.72
2023-02-19T13:46:23.684Z,98179.84
2023-02-19T13:49:39.329Z,98173.75
2023-02-19T13:52:30.672Z,98171.41
2023-02-19T13:55:34.920Z,98167.19
2023-02-19T13:58:32.827Z,98163.63
2023-02-19T14:01:06.941Z,98156.66
2023-02-19T14:04:07.168Z,98149.41
2023-02-19T14:07:04.968Z,98154.84
2023-02-19T14:09:34.699Z,98154.09
2023-02-19T14:12:06.488Z,98144.84
2023-02-19T14:14:39.688Z,98144.72
2023-02-19T14:17:09.548Z,98140.75
2023-02-19T14:19:36.496Z,98136.56
2023-02-19T14:22:41.865Z,98135.69
2023-02-19T14:25:26.741Z,98139.31
2023-02-19T14:28:17.715Z,98134.47
2023-02-19T14:31:18.101Z,98127.25
2023-02-19T14:33:53.470Z,98120.81
2023-02-19T14:36:26.848Z,98122.63
2023-02-19T14:38:58.705Z,98119.63
2023-02-19T14:41:28.931Z,98120.50
2023-02-19T14:43:58.772Z,98119.56
2023-02-19T14:46:38.077Z,98125.56
2023-02-19T14:49:14.663Z,98117.75
2023-02-19T14:51:46.072Z,98119.88
2023-02-19T14:54:18.827Z,98123.50
2023-02-19T14:56:50.962Z,98118.31
2023-02-19T14:59:23.388Z,98121.06
2023-02-19T15:02:08.042Z,98114.44
2023-02-19T15:04:36.793Z,98112.72
2023-02-19T15:07:10.654Z,98113.00
2023-02-19T15:09:45.136Z,98105.06
2023-02-19T15:12:46.592Z,98113.09
2023-02-19T15:15:25.715Z,98108.69
2023-02-19T15:17:54.817Z,98103.09
2023-02-19T15:20:28.477Z,98097.91
2023-02-19T15:22:58.853Z,98094.16
2023-02-19T15:25:33.041Z,98092.19
2023-02-19T15:28:26.002Z,98082.81
2023-02-19T15:30:59.483Z,98090.06
2023-02-19T15:33:28.488Z,98097.91
2023-02-19T15:36:01.942Z,98099.50
2023-02-19T15:38:30.090Z,98095.56
2023-02-19T15:40:58.832Z,98101.81
2023-02-19T15:43:31.264Z,98098.97
2023-02-19T15:46:06.736Z,98095.88
2023-02-19T15:48:46.787Z,98101.06
2023-02-19T15:51:23.783Z,98101.06
2023-02-19T15:53:57.369Z,98101.16
2023-02-19T15:56:34.716Z,98108.69
2023-02-19T15:59:07.794Z,98102.66
2023-02-19T16:01:39.120Z,98112.31
2023-02-19T16:04:16.229Z,98113.91
2023-02-19T16:06:53.835Z,98114.97
2023-02-19T16:09:23.696Z,98115.50
2023-02-19T16:11:55.997Z,98106.47
2023-02-19T16:14:34.725Z,98115.72
2023-02-19T16:17:08.215Z,98122.25
2023-02-19T16:19:52.877Z,98122.03
2023-02-19T16:22:23.563Z,98126.50
2023-02-19T16:25:00.790Z,98123.78
2023-02-19T16:27:37.293Z,98142.16
2023-02-19T16:30:25.431Z,98143.09
2023-02-19T16:33:22.038Z,98155.16
2023-02-19T16:35:52.463Z,98151.94
2023-02-19T16:38:20.858Z,98166.84
2023-02-19T16:40:54.484Z,98160.09
2023-02-19T16:43:42.290Z,98158.00
2023-02-19T16:46:12.033Z,98156.50
2023-02-19T16:48:39.826Z,98160.09
2023-02-19T16:51:08.454Z,98164.97
2023-02-19T16:53:35.717Z,98158.25
2023-02-19T16:56:02.832Z,98162.44
2023-02-19T16:58:29.825Z,98160.72
2023-02-19T17:00:57.613Z,98164.09
2023-02-19T17:03:25.644Z,98156.28
2023-02-19T17:05:53.519Z,98170.44
2023-02-19T17:08:34.377Z,98169.19
2023-02-19T17:11:04.477Z,98180.81
2023-02-19T17:13:31.709Z,98181.69
2023-02-19T17:15:59.133Z,98189.25
2023-02-19T17:18:26.159Z,98183.91
2023-02-19T17:21:11.590Z,98192.28
2023-02-19T17:23:39.130Z,98202.84
2023-02-19T17:26:06.186Z,98197.59
2023-02-19T17:28:33.304Z,98199.00
2023-02-19T17:31:00.463Z,98200.56
2023-02-19T17:33:27.474Z,98206.69
2023-02-19T17:35:54.516Z,98219.47
2023-02-19T17:38:21.688Z,98207.97
2023-02-19T17:40:48.926Z,98218.50
2023-02-19T17:43:15.980Z,98210.63
2023-02-19T17:45:43.143Z,98222.56
2023-02-19T17:48:13.748Z,98229.16
2023-02-19T17:50:42.347Z,98242.81
2023-02-19T17:53:09.795Z,98235.88
2023-02-19T17:55:37.215Z,98240.75
2023-02-19T17:58:04.428Z,98234.94
2023-02-19T18:00:32.479Z,98241.44
2023-02-19T18:02:59.646Z,98242.25
2023-02-19T18:05:27.011Z,98251.16
2023-02-19T18:07:54.104Z,98250.41
2023-02-19T18:10:23.773Z,98251.91
2023-02-19T18:12:51.489Z,98247.31
2023-02-19T18:15:22.856Z,98262.84
2023-02-19T18:17:50.367Z,98269.78
2023-02-19T18:20:25.724Z,98260.41
2023-02-19T18:22:53.957Z,98267.53
2023-02-19T18:25:21.842Z,98266.41
2023-02-19T18:27:49.707Z,98263.13
2023-02-19T18:30:19.200Z,98270.09
2023-02-19T18:32:50.408Z,98274.63
2023-02-19T18:35:19.623Z,98281.41
2023-02-19T18:37:52.012Z,98285.25
2023-02-19T18:40:25.483Z,98289.81
2023-02-19T18:42:53.916Z,98304.34
2023-02-19T18:45:21.137Z,98312.13
2023-02-19T18:47:49.908Z,98308.41
2023-02-19T18:50:19.423Z,98304.16
2023-02-19T18:52:47.118Z,98290.00
2023-02-19T18:55:14.191Z,98302.66
2023-02-19T18:57:42.496Z,98296.44
2023-02-19T19:00:10.054Z,98298.97
2023-02-19T19:02:48.734Z,98311.44
2023-02-19T19:05:23.385Z,98309.53
2023-02-19T19:07:55.968Z,98324.09
2023-02-19T19:10:24.537Z,98331.25
2023-02-19T19:12:52.024Z,98339.06
2023-02-19T19:15:19.534Z,98339.44
2023-02-19T19:17:48.485Z,98333.91
2023-02-19T19:20:21.688Z,98342.00
2023-02-19T19:22:50.951Z,98350.06
2023-02-19T19:25:19.002Z,98344.44
2023-02-19T19:27:46.642Z,98352.75
2023-02-19T19:30:14.142Z,98358.63
2023-02-19T19:32:41.500Z,98365.22
2023-02-19T19:35:09.638Z,98368.50
2023-02-19T19:37:36.727Z,98373.94
2023-02-19T19:40:04.245Z,98384.72
2023-02-19T19:42:31.369Z,98385.44
2023-02-19T19:45:01.932Z,98382.38
2023-02-19T19:47:29.945Z,98378.84
2023-02-19T19:49:57.406Z,98394.25
2023-02-19T19:52:24.954Z,98392.03
2023-02-19T19:54:54.375Z,98388.13
2023-02-19T19:57:21.910Z,98391.41
2023-02-19T19:59:51.417Z,98391.78
2023-02-19T20:02:19.893Z,98400.38
2023-02-19T20:04:47.087Z,98409.28
2023-02-19T20:07:14.261Z,98407.81
2023-02-19T20:09:41.591Z,98408.78
2023-02-19T20:12:09.063Z,98402.44
2023-02-19T20:14:36.799Z,98416.38
2023-02-19T20:17:03.881Z,98416.72
2023-02-19T20:19:31.225Z,98427.88
2023-02-19T20:21:58.458Z,98419.66
2023-02-19T20:24:29.038Z,98429.47
2023-02-19T20:27:02.404Z,98420.41
2023-02-19T20:29:32.069Z,98433.38
2023-02-19T20:32:00.781Z,98445.34
2023-02-19T20:34:28.932Z,98445.16
2023-02-19T20:36:56.143Z,98445.94
2023-02-19T20:39:28.819Z,98453.75
2023-02-19T20:41:57.602Z,98450.81
2023-02-19T20:44:26.120Z,98456.53
2023-02-19T20:46:53.850Z,98436.56
2023-02-19T20:49:23.195Z,98462.50
2023-02-19T20:51:54.975Z,98468.22
2023-02-19T20:54:26.078Z,98462.72
2023-02-19T20:56:55.219Z,98480.22
2023-02-19T20:59:24.899Z,98466.59
2023-02-19T21:01:52.150Z,98470.47
2023-02-19T21:04:20.325Z,98472.03
2023-02-19T21:06:48.317Z,98485.91
2023-02-19T21:09:15.821Z,98494.22
2023-02-19T21:11:43.440Z,98484.94
2023-02-19T21:14:10.595Z,98488.78
2023-02-19T21:16:38.056Z,98504.16
2023-02-19T21:19:05.261Z,98493.53
2023-02-19T21:21:34.659Z,98495.50
2023-02-19T21:24:03.153Z,98482.41
2023-02-19T21:26:35.653Z,98486.72
2023-02-19T21:29:04.473Z,98500.22
2023-02-19T21:31:37.122Z,98503.78
2023-02-19T21:34:06.286Z,98496.19
2023-02-19T21:36:38.036Z,98508.94
2023-02-19T21:39:07.635Z,98506.56
2023-02-19T21:41:35.645Z,98515.66
2023-02-19T21:44:03.531Z,98515.91
2023-02-19T21:46:30.606Z,98513.00
2023-02-19T21:48:59.686Z,98508.69
2023-02-19T21:51:34.284Z,98520.25
2023-02-19T21:54:08.273Z,98521.22
2023-02-19T21:56:36.877Z,98516.13
2023-02-19T21:59:06.658Z,98494.44
2023-02-19T22:01:40.314Z,98518.25
2023-02-19T22:04:09.007Z,98523.06
2023-02-19T22:06:37.048Z,98517.19
2023-02-19T22:09:05.188Z,98519.84
2023-02-19T22:11:32.172Z,98531.06
2023-02-19T22:14:00.783Z,98532.25
2023-02-19T22:16:28.933Z,98534.69
2023-02-19T22:19:00.325Z,98541.47
2023-02-19T22:21:33.141Z,98526.41
2023-02-19T22:24:01.895Z,98552.38
2023-02-19T22:26:31.964Z,98547.25
2023-02-19T22:29:00.121Z,98547.25
2023-02-19T22:31:27.923Z,98545.53
2023-02-19T22:33:56.353Z,98542.25
2023-02-19T22:36:34.449Z,98536.84
2023-02-19T22:39:02.174Z,98544.03
2023-02-19T22:41:29.529Z,98562.06
2023-02-19T22:43:57.942Z,98552.41
2023-02-19T22:46:28.873Z,98563.41
2023-02-19T22:48:56.422Z,98560.22
2023-02-19T22:51:24.499Z,98559.13
2023-02-19T22:53:55.125Z,98570.81
2023-02-19T22:56:27.669Z,98581.00
2023-02-19T22:58:56.934Z,98577.25
2023-02-19T23:01:24.627Z,98580.53
2023-02-19T23:03:54.165Z,98585.22
2023-02-19T23:06:27.855Z,98583.75
2023-02-19T23:08:56.816Z,98594.00
2023-02-19T23:11:29.205Z,98588.56
2023-02-19T23:13:57.058Z,98591.63
2023-02-19T23:16:24.453Z,98582.75
2023-02-19T23:18:52.189Z,98586.69
2023-02-19T23:21:20.298Z,98582.06
2023-02-19T23:23:48.637Z,98590.00
2023-02-19T23:26:16.520Z,98590.72
2023-02-19T23:28:44.885Z,98584.69
2023-02-19T23:31:13.269Z,98592.03
2023-02-19T23:33:41.176Z,98591.00
2023-02-19T23:36:09.283Z,98589.63
2023-02-19T23:38:37.224Z,98607.03
2023-02-19T23:41:09.132Z,98593.28
2023-02-19T23:43:36.671Z,98600.16
2023-02-19T23:46:04.358Z,98597.34
2023-02-19T23:48:32.780Z,98614.13
2023-02-19T23:50:59.746Z,98611.44
2023-02-19T23:53:27.119Z,98622.19
2023-02-19T23:55:54.410Z,98622.63
2023-02-19T23:58:21.796Z,98619.50
